Stations météo

réclame
Mon MeteoGroup
Drumnadrochit, Grande-Bretagne (99132): Température de l'air & dewpoint: 15.08.2018 05:00:00 - 21.08.2018 05:00:00 (BST)Drumnadrochit, Grande-Bretagne (99132): Quantités de précipitations: 15.08.2018 05:00:00 - 21.08.2018 05:00:00 (BST)
Date & Time tt [°C] td [°C] rr [mm]
21.08.2018 05:00:00 9,1 8,6 0,0
21.08.2018 04:00:00 10,0 9,1 0,0
21.08.2018 03:00:00 10,6 9,4 0,0
21.08.2018 02:00:00 10,9 9,0 0,0
21.08.2018 01:00:00 11,1 9,5 0,0
21.08.2018 00:00:00 9,8 7,9 0,0
20.08.2018 23:00:00 10,3 8,4 0,0
20.08.2018 22:00:00 12,0 8,4 0,0
20.08.2018 21:00:00 14,3 8,6 0,0
20.08.2018 20:00:00 14,3 8,8 0,0
20.08.2018 19:00:00 16,9 8,4 0,0
20.08.2018 18:00:00 17,8 9,0 0,0
20.08.2018 17:00:00 18,4 8,8 0,0
20.08.2018 16:00:00 18,3 7,6 0,0
20.08.2018 15:00:00 18,3 9,0 0,0
20.08.2018 14:00:00 17,7 7,5 0,0
20.08.2018 13:00:00 16,6 7,4 0,0
20.08.2018 12:00:00 16,5 8,6 0,0
20.08.2018 11:00:00 14,9 8,3 0,0
20.08.2018 10:00:00 14,4 9,4 0,0
20.08.2018 09:00:00 13,2 10,2 0,0
20.08.2018 08:00:00 12,2 10,6 0,0
20.08.2018 07:00:00 11,4 10,8 0,0
20.08.2018 06:00:00 11,4 10,6 0,0
20.08.2018 05:00:00 11,7 10,7 0,0
20.08.2018 04:00:00 11,9 10,9 0,0
20.08.2018 03:00:00 12,1 10,9 0,0
20.08.2018 02:00:00 12,2 11,0 0,0
20.08.2018 01:00:00 12,3 10,9 0,0
20.08.2018 00:00:00 11,8 10,2 0,0
19.08.2018 23:00:00 12,2 10,2 0,0
19.08.2018 22:00:00 13,9 9,9 0,0
19.08.2018 21:00:00 14,1 10,2 0,0
19.08.2018 20:00:00 15,5 11,6 0,0
19.08.2018 19:00:00 17,4 8,6 0,0
19.08.2018 18:00:00 18,6 8,3 0,0
19.08.2018 17:00:00 18,1 8,3 0,0
19.08.2018 16:00:00 18,7 8,4 0,0
19.08.2018 15:00:00 18,3 8,7 0,0
19.08.2018 14:00:00 17,6 9,3 0,0
19.08.2018 13:00:00 16,1 9,0 0,0
19.08.2018 12:00:00 14,9 9,0 0,0
19.08.2018 11:00:00 14,0 8,9 0,0
19.08.2018 10:00:00 13,3 8,6 0,0
19.08.2018 09:00:00 12,4 8,5 0,0
19.08.2018 08:00:00 11,5 7,8 0,0
19.08.2018 07:00:00 10,6 9,0 0,0
19.08.2018 06:00:00 10,1 8,7 0,0
19.08.2018 05:00:00 9,9 8,6 0,0
19.08.2018 04:00:00 9,7 8,6 0,0
19.08.2018 03:00:00 9,3 8,2 0,0
19.08.2018 02:00:00 8,7 7,9 0,0
19.08.2018 01:00:00 7,4 7,2 0,0
19.08.2018 00:00:00 6,6 5,7 0,0
18.08.2018 23:00:00 7,7 6,6 0,0
18.08.2018 22:00:00 9,1 6,4 0,0
18.08.2018 21:00:00 11,1 6,7 0,0
18.08.2018 20:00:00 14,2 7,1 0,0
18.08.2018 19:00:00 16,1 7,1 0,0
18.08.2018 18:00:00 16,0 7,6 0,0
18.08.2018 17:00:00 16,9 7,7 0,0
18.08.2018 16:00:00 17,8 7,9 0,0
18.08.2018 15:00:00 17,0 8,2 0,0
18.08.2018 14:00:00 18,2 8,0 0,0
18.08.2018 13:00:00 17,2 7,8 0,0
18.08.2018 12:00:00 16,9 8,3 0,0
18.08.2018 11:00:00 15,9 8,8 0,0
18.08.2018 10:00:00 16,4 6,8 0,0
18.08.2018 09:00:00 14,8 9,0 0,0
18.08.2018 08:00:00 14,3 8,7 0,0
18.08.2018 07:00:00 14,0 9,0 0,0
18.08.2018 06:00:00 13,8 9,2 0,0
18.08.2018 05:00:00 13,8 9,4 0,0
18.08.2018 04:00:00 13,7 8,7 0,0
18.08.2018 03:00:00 13,9 8,8 0,0
18.08.2018 02:00:00 13,8 9,0 0,0
18.08.2018 01:00:00 13,6 8,7 0,0
18.08.2018 00:00:00 13,6 9,2 0,0
17.08.2018 23:00:00 13,8 9,2 0,0
17.08.2018 22:00:00 14,0 9,1 0,0
17.08.2018 21:00:00 14,3 9,0 0,0
17.08.2018 20:00:00 15,5 10,1 0,0
17.08.2018 19:00:00 16,6 11,7 0,0
17.08.2018 18:00:00 16,6 12,9 0,0
17.08.2018 17:00:00 16,2 12,6 0,0
17.08.2018 16:00:00 15,7 11,9 0,0
17.08.2018 15:00:00 15,1 10,9 0,0
17.08.2018 14:00:00 15,1 10,4 0,0
17.08.2018 13:00:00 15,3 10,7 0,0
17.08.2018 12:00:00 14,5 10,9 0,0
17.08.2018 11:00:00 13,2 10,2 0,0
17.08.2018 10:00:00 12,7 10,0 0,0
17.08.2018 09:00:00 12,6 9,1 0,0
17.08.2018 08:00:00 12,0 8,9 0,0
17.08.2018 07:00:00 10,9 9,4 0,0
17.08.2018 06:00:00 11,2 8,6 0,0
17.08.2018 05:00:00 11,0 9,4 0,0
17.08.2018 04:00:00 11,6 9,5 0,0
17.08.2018 03:00:00 11,2 8,8 0,0
17.08.2018 02:00:00 11,9 9,0 0,0
17.08.2018 01:00:00 12,0 9,0 0,0
17.08.2018 00:00:00 12,0 9,1 0,0
16.08.2018 23:00:00 11,8 8,6 0,0
16.08.2018 22:00:00 12,4 8,7 0,0
16.08.2018 21:00:00 13,2 8,8 0,0
16.08.2018 20:00:00 14,0 8,8 0,0
16.08.2018 19:00:00 14,1 8,0 0,0
16.08.2018 18:00:00 15,1 8,3 0,0
16.08.2018 17:00:00 16,4 10,3 0,4
16.08.2018 16:00:00 17,0 9,5 0,0
16.08.2018 15:00:00 15,3 10,0 0,0
16.08.2018 14:00:00 16,2 11,3 0,0
16.08.2018 13:00:00 15,6 10,6 0,0
16.08.2018 12:00:00 14,3 10,0 0,8
16.08.2018 11:00:00 14,7 9,9 0,0
16.08.2018 10:00:00 13,9 9,4 0,0
16.08.2018 09:00:00 13,6 10,1 0,0
16.08.2018 08:00:00 12,8 9,3 0,0
16.08.2018 07:00:00 11,5 9,7 0,0
16.08.2018 06:00:00 10,1 8,2 0,0
16.08.2018 05:00:00 11,2 8,5 0,0
16.08.2018 04:00:00 11,7 9,4 0,0
16.08.2018 03:00:00 11,9 8,8 0,0
16.08.2018 02:00:00 10,8 8,4 0,0
16.08.2018 01:00:00 12,5 10,1 0,0
16.08.2018 00:00:00 13,0 8,8 0,0
15.08.2018 23:00:00 13,3 9,7 0,0
15.08.2018 22:00:00 13,7 10,5 0,0
15.08.2018 21:00:00 13,7 9,7 0,0
15.08.2018 20:00:00 14,5 9,6 0,0
15.08.2018 19:00:00 15,4 10,0 0,0
15.08.2018 18:00:00 15,8 9,6 0,0
15.08.2018 17:00:00 15,6 11,6 0,0
15.08.2018 16:00:00 14,8 11,0 0,2
15.08.2018 15:00:00 15,2 10,0 0,0
15.08.2018 14:00:00 16,7 9,7 0,0
15.08.2018 13:00:00 16,9 10,0 0,0
15.08.2018 12:00:00 16,6 9,8 0,0
15.08.2018 11:00:00 17,8 12,1 0,0
15.08.2018 10:00:00 16,6 13,3 0,0
15.08.2018 09:00:00 16,5 13,2 0,0
15.08.2018 08:00:00 14,6 14,4 0,2
15.08.2018 07:00:00 13,5 13,1 0,2
15.08.2018 06:00:00 13,6 13,1 0,2
15.08.2018 05:00:00 13,6 12,6 0,0

tt = Température de l'air
td = dewpoint
rr = Quantités de précipitations

stations d'obs. à proximité